createdAt,value
2024-03-03T00:00:14.180Z,103977.06
2024-03-03T00:02:44.729Z,104092.59
2024-03-03T00:05:14.748Z,103991.91
2024-03-03T00:07:44.715Z,104088.88
2024-03-03T00:10:14.194Z,104101.41
2024-03-03T00:12:43.505Z,104092.59
2024-03-03T00:15:13.451Z,104085.75
2024-03-03T00:17:44.040Z,104082.25
2024-03-03T00:20:14.604Z,104091.06
2024-03-03T00:22:43.816Z,104087.75
2024-03-03T00:25:13.876Z,104084.06
2024-03-03T00:27:43.189Z,104087.19
2024-03-03T00:30:13.714Z,104093.84
2024-03-03T00:32:47.718Z,104070.91
2024-03-03T00:35:17.338Z,104073.88
2024-03-03T00:37:46.402Z,103987.97
2024-03-03T00:40:15.918Z,104090.41
2024-03-03T00:42:45.266Z,104108.09
2024-03-03T00:45:14.559Z,104112.91
2024-03-03T00:47:45.554Z,104110.84
2024-03-03T00:50:16.497Z,104138.91
2024-03-03T00:52:45.661Z,104134.66
2024-03-03T00:55:15.560Z,104145.16
2024-03-03T00:57:45.010Z,104141.22
2024-03-03T01:00:15.005Z,104142.72
2024-03-03T01:02:44.697Z,104156.19
2024-03-03T01:05:16.049Z,104137.50
2024-03-03T01:07:45.290Z,104143.00
2024-03-03T01:10:14.882Z,104162.69
2024-03-03T01:12:43.875Z,104165.50
2024-03-03T01:15:13.265Z,104068.66
2024-03-03T01:17:42.897Z,104176.13
2024-03-03T01:20:13.614Z,104181.81
2024-03-03T01:22:44.548Z,104188.81
2024-03-03T01:25:13.610Z,104199.13
2024-03-03T01:27:42.874Z,104220.50
2024-03-03T01:30:12.851Z,104121.00
2024-03-03T01:32:41.904Z,104131.91
2024-03-03T01:35:11.503Z,104255.16
2024-03-03T01:37:40.651Z,104271.00
2024-03-03T01:40:14.137Z,104282.06
2024-03-03T01:42:43.694Z,104291.63
2024-03-03T01:45:25.859Z,104301.53
2024-03-03T01:47:56.529Z,104311.69
2024-03-03T01:50:28.518Z,104308.00
2024-03-03T01:52:58.271Z,104312.44
2024-03-03T01:55:29.122Z,104315.34
2024-03-03T01:58:04.211Z,104336.72
2024-03-03T02:00:36.814Z,104322.66
2024-03-03T02:03:09.664Z,104337.25
2024-03-03T02:05:40.665Z,104332.16
2024-03-03T02:08:10.260Z,104347.72
2024-03-03T02:10:41.564Z,104338.53
2024-03-03T02:13:11.439Z,104335.22
2024-03-03T02:15:40.900Z,104350.19
2024-03-03T02:18:10.925Z,104367.47
2024-03-03T02:20:41.157Z,104365.38
2024-03-03T02:23:11.885Z,104363.13
2024-03-03T02:25:42.467Z,104384.19
2024-03-03T02:28:12.756Z,104389.66
2024-03-03T02:30:42.502Z,104382.84
2024-03-03T02:33:12.658Z,104389.69
2024-03-03T02:35:41.926Z,104378.41
2024-03-03T02:38:13.018Z,104387.06
2024-03-03T02:40:42.540Z,104401.97
2024-03-03T02:43:11.909Z,104407.84
2024-03-03T02:45:41.614Z,104413.31
2024-03-03T02:48:11.948Z,104426.81
2024-03-03T02:50:41.635Z,104432.69
2024-03-03T02:53:12.967Z,105264.63
2024-03-03T02:55:43.418Z,105266.25
2024-03-03T02:58:13.784Z,105297.13
2024-03-03T03:00:43.257Z,105317.19
2024-03-03T03:03:12.936Z,105395.09
2024-03-03T03:06:00.165Z,105295.88
2024-03-03T03:08:37.128Z,105499.22
2024-03-03T03:11:08.162Z,105512.34
2024-03-03T03:13:40.301Z,105573.63
2024-03-03T03:16:11.765Z,105573.69
2024-03-03T03:18:41.833Z,105594.28
2024-03-03T03:21:11.640Z,105629.38
2024-03-03T03:23:44.326Z,105633.63
2024-03-03T03:26:14.601Z,105609.97
2024-03-03T03:28:45.029Z,105618.69
2024-03-03T03:31:14.389Z,105698.25
2024-03-03T03:33:44.464Z,105702.94
2024-03-03T03:36:15.239Z,105696.38
2024-03-03T03:38:46.861Z,105727.53
2024-03-03T03:41:25.507Z,105790.53
2024-03-03T03:43:55.799Z,105800.13
2024-03-03T03:46:24.926Z,105798.00
2024-03-03T03:48:54.459Z,105857.69
2024-03-03T03:51:24.153Z,105878.06
2024-03-03T03:53:56.436Z,105909.00
2024-03-03T03:56:26.500Z,105916.25
2024-03-03T03:58:56.296Z,105944.38
2024-03-03T04:01:26.316Z,105934.06
2024-03-03T04:03:57.180Z,105938.25
2024-03-03T04:06:28.452Z,105948.56
2024-03-03T04:09:00.242Z,105967.31
2024-03-03T04:11:30.031Z,106003.22
2024-03-03T04:14:05.773Z,106007.69
2024-03-03T04:16:35.593Z,106001.84
2024-03-03T04:19:05.070Z,106010.00
2024-03-03T04:21:35.155Z,105981.19
2024-03-03T04:24:07.614Z,105983.78
2024-03-03T04:26:37.210Z,105969.03
2024-03-03T04:29:06.742Z,105961.50
2024-03-03T04:31:36.101Z,105993.88
2024-03-03T04:34:05.658Z,106006.50
2024-03-03T04:36:35.259Z,105972.28
2024-03-03T04:39:04.803Z,105846.00
2024-03-03T04:41:35.934Z,105942.97
2024-03-03T04:44:06.657Z,105897.25
2024-03-03T04:46:37.323Z,105843.84
2024-03-03T04:49:08.503Z,105828.81
2024-03-03T04:51:38.352Z,105827.66
2024-03-03T04:54:08.731Z,105797.69
2024-03-03T04:56:39.103Z,105806.56
2024-03-03T04:59:09.113Z,105816.34
2024-03-03T05:01:44.230Z,105794.53
2024-03-03T05:04:14.975Z,105789.59
2024-03-03T05:06:49.938Z,105760.31
2024-03-03T05:09:20.180Z,105749.28
2024-03-03T05:11:50.945Z,105727.41
2024-03-03T05:14:21.093Z,105686.41
2024-03-03T05:16:50.313Z,105651.06
2024-03-03T05:19:19.636Z,105646.75
2024-03-03T05:21:49.363Z,105620.03
2024-03-03T05:24:18.806Z,105594.47
2024-03-03T05:26:50.025Z,105576.88
2024-03-03T05:29:19.307Z,105546.31
2024-03-03T05:31:48.874Z,105510.94
2024-03-03T05:34:18.285Z,105501.03
2024-03-03T05:36:48.781Z,105442.41
2024-03-03T05:39:18.764Z,105258.56
2024-03-03T05:41:49.820Z,105263.34
2024-03-03T05:44:19.140Z,105262.78
2024-03-03T05:46:48.822Z,105267.16
2024-03-03T05:49:18.221Z,105261.78
2024-03-03T05:51:47.534Z,105243.63
2024-03-03T05:54:17.022Z,105222.47
2024-03-03T05:56:47.799Z,105192.13
2024-03-03T05:59:24.156Z,105189.78
2024-03-03T06:01:55.573Z,105160.22
2024-03-03T06:04:25.247Z,105129.28
2024-03-03T06:06:54.600Z,105125.69
2024-03-03T06:09:24.436Z,105088.72
2024-03-03T06:11:53.608Z,105081.59
2024-03-03T06:14:25.148Z,104935.19
2024-03-03T06:16:54.498Z,105029.31
2024-03-03T06:19:24.303Z,104883.53
2024-03-03T06:21:54.006Z,104457.59
2024-03-03T06:24:22.998Z,104452.44
2024-03-03T06:26:53.200Z,104388.94
2024-03-03T06:29:23.845Z,104454.34
2024-03-03T06:31:53.043Z,104431.88
2024-03-03T06:34:22.139Z,104406.56
2024-03-03T06:36:51.951Z,104395.34
2024-03-03T06:39:21.064Z,104293.41
2024-03-03T06:41:50.000Z,104288.63
2024-03-03T06:44:19.444Z,104392.25
2024-03-03T06:46:49.678Z,104364.25
2024-03-03T06:49:18.866Z,104243.53
2024-03-03T06:51:50.197Z,104332.38
2024-03-03T06:54:19.489Z,104342.16
2024-03-03T06:56:48.961Z,104329.81
2024-03-03T06:59:18.248Z,104330.19
2024-03-03T07:01:49.443Z,104325.25
2024-03-03T07:04:25.738Z,104316.41
2024-03-03T07:06:56.003Z,104293.56
2024-03-03T07:09:25.778Z,104272.94
2024-03-03T07:11:56.636Z,104247.66
2024-03-03T07:14:27.582Z,104228.50
2024-03-03T07:16:58.750Z,104145.00
2024-03-03T07:19:28.129Z,104188.09
2024-03-03T07:21:57.697Z,104152.91
2024-03-03T07:24:26.819Z,104114.94
2024-03-03T07:26:56.021Z,104107.34
2024-03-03T07:29:30.935Z,104075.44
2024-03-03T07:32:04.989Z,104034.16
2024-03-03T07:34:34.296Z,103992.50
2024-03-03T07:37:03.719Z,103969.59
2024-03-03T07:39:32.935Z,103953.16
2024-03-03T07:42:03.971Z,103924.00
2024-03-03T07:44:33.539Z,103807.22
2024-03-03T07:47:04.802Z,103894.56
2024-03-03T07:49:33.876Z,103853.97
2024-03-03T07:52:02.965Z,103802.25
2024-03-03T07:54:31.906Z,103771.41
2024-03-03T07:57:04.220Z,103743.91
2024-03-03T07:59:33.260Z,103702.34
2024-03-03T08:02:04.324Z,103682.19
2024-03-03T08:04:34.498Z,103652.75
2024-03-03T08:07:04.658Z,103596.56
2024-03-03T08:09:34.003Z,103446.09
2024-03-03T08:12:08.443Z,103414.59
2024-03-03T08:14:37.821Z,103488.47
2024-03-03T08:17:08.829Z,103434.81
2024-03-03T08:19:38.392Z,103403.03
2024-03-03T08:22:07.938Z,103379.09
2024-03-03T08:24:37.405Z,103327.25
2024-03-03T08:27:07.040Z,103295.50
2024-03-03T08:29:36.032Z,103273.34
2024-03-03T08:32:08.505Z,103245.09
2024-03-03T08:34:37.758Z,103185.75
2024-03-03T08:37:07.042Z,103134.84
2024-03-03T08:39:37.050Z,103095.63
2024-03-03T08:42:06.707Z,103045.44
2024-03-03T08:44:35.698Z,103002.34
2024-03-03T08:47:05.509Z,102725.63
2024-03-03T08:49:36.192Z,102692.31
2024-03-03T08:52:07.205Z,102629.16
2024-03-03T08:54:37.703Z,102577.66
2024-03-03T08:57:10.572Z,102548.44
2024-03-03T08:59:40.364Z,102503.47
2024-03-03T09:02:09.673Z,102453.66
2024-03-03T09:04:40.726Z,102413.44
2024-03-03T09:07:10.015Z,102347.69
2024-03-03T09:09:42.384Z,102188.19
2024-03-03T09:12:13.305Z,102239.53
2024-03-03T09:14:42.976Z,102179.56
2024-03-03T09:17:12.924Z,102129.72
2024-03-03T09:19:43.428Z,102078.78
2024-03-03T09:22:12.732Z,102045.81
2024-03-03T09:24:44.348Z,102010.72
2024-03-03T09:27:13.406Z,101945.00
2024-03-03T09:29:43.093Z,101906.34
2024-03-03T09:32:13.069Z,101851.75
2024-03-03T09:34:43.944Z,101745.50
2024-03-03T09:37:47.769Z,101823.19
2024-03-03T09:40:25.166Z,101831.50
2024-03-03T09:42:56.816Z,101737.41
2024-03-03T09:45:31.536Z,101727.41
2024-03-03T09:48:05.061Z,101822.38
2024-03-03T09:50:35.501Z,101702.09
2024-03-03T09:53:08.848Z,101798.16
2024-03-03T09:55:39.857Z,101775.97
2024-03-03T09:58:11.911Z,101761.91
2024-03-03T10:00:42.308Z,101747.09
2024-03-03T10:03:12.770Z,101734.63
2024-03-03T10:05:44.329Z,101719.84
2024-03-03T10:08:15.715Z,101719.16
2024-03-03T10:10:48.665Z,101699.66
2024-03-03T10:13:19.201Z,101692.25
2024-03-03T10:15:49.035Z,101689.91
2024-03-03T10:18:21.993Z,101692.94
2024-03-03T10:20:53.972Z,101678.75
2024-03-03T10:23:25.287Z,101688.88
2024-03-03T10:25:59.182Z,101692.47
2024-03-03T10:28:29.026Z,101635.53
2024-03-03T10:31:14.653Z,101612.94
2024-03-03T10:33:58.641Z,101732.56
2024-03-03T10:36:30.155Z,101725.31
2024-03-03T10:38:59.651Z,101713.00
2024-03-03T10:41:28.803Z,101719.69
2024-03-03T10:43:58.839Z,101704.44
2024-03-03T10:46:29.139Z,101707.13
2024-03-03T10:48:59.116Z,101574.41
2024-03-03T10:51:32.572Z,101682.06
2024-03-03T10:54:02.037Z,101656.00
2024-03-03T10:56:32.940Z,101661.72
2024-03-03T10:59:06.117Z,101652.16
2024-03-03T11:01:36.849Z,101627.03
2024-03-03T11:04:08.601Z,101603.47
2024-03-03T11:06:40.812Z,101574.22
2024-03-03T11:09:12.416Z,101527.84
2024-03-03T11:11:48.291Z,101501.09
2024-03-03T11:14:19.330Z,101476.44
2024-03-03T11:16:53.933Z,101464.91
2024-03-03T11:19:32.377Z,101431.97
2024-03-03T11:22:05.828Z,101281.69
2024-03-03T11:24:42.783Z,101348.44
2024-03-03T11:27:17.226Z,101329.75
2024-03-03T11:29:48.270Z,101207.38
2024-03-03T11:32:19.016Z,101283.66
2024-03-03T11:34:49.672Z,101192.81
2024-03-03T11:37:22.020Z,101223.59
2024-03-03T11:39:56.994Z,101217.25
2024-03-03T11:42:40.147Z,101202.13
2024-03-03T11:45:12.672Z,101103.50
2024-03-03T11:47:49.097Z,101196.72
2024-03-03T11:50:25.997Z,101197.56
2024-03-03T11:52:56.488Z,101155.78
2024-03-03T11:55:28.481Z,101170.34
2024-03-03T11:58:00.657Z,101149.31
2024-03-03T12:00:31.794Z,101127.91
2024-03-03T12:03:02.794Z,101120.97
2024-03-03T12:05:32.643Z,101095.50
2024-03-03T12:08:07.954Z,101101.88
2024-03-03T12:10:37.800Z,101104.88
2024-03-03T12:13:08.445Z,101108.03
2024-03-03T12:15:38.465Z,100993.81
2024-03-03T12:18:12.728Z,101096.16
2024-03-03T12:20:44.804Z,101094.97
2024-03-03T12:23:17.262Z,101073.44
2024-03-03T12:25:46.700Z,101068.69
2024-03-03T12:28:16.619Z,101082.34
2024-03-03T12:30:46.482Z,101085.50
2024-03-03T12:33:15.934Z,100986.25
2024-03-03T12:35:46.768Z,101078.81
2024-03-03T12:38:17.538Z,101045.97
2024-03-03T12:40:46.943Z,100890.53
2024-03-03T12:43:17.330Z,100945.25
2024-03-03T12:45:47.185Z,100909.72
2024-03-03T12:48:16.865Z,100900.34
2024-03-03T12:51:01.288Z,100893.38
2024-03-03T12:53:40.965Z,100900.53
2024-03-03T12:56:20.628Z,100907.00
2024-03-03T12:58:50.627Z,100912.81
2024-03-03T13:01:20.549Z,100924.34
2024-03-03T13:03:55.014Z,100943.72
2024-03-03T13:06:24.308Z,100958.16
2024-03-03T13:08:55.244Z,100982.66
2024-03-03T13:11:25.182Z,100991.28
2024-03-03T13:13:57.863Z,101007.38
2024-03-03T13:16:30.475Z,101004.56
2024-03-03T13:19:00.684Z,100998.97
2024-03-03T13:21:30.351Z,101001.34
2024-03-03T13:26:53.748Z,101017.03
2024-03-03T13:29:23.923Z,101016.00
2024-03-03T13:31:53.603Z,101012.72
2024-03-03T13:34:23.097Z,101005.59
2024-03-03T13:36:52.461Z,101013.91
2024-03-03T13:39:21.737Z,101026.25
2024-03-03T13:41:52.898Z,101045.59
2024-03-03T13:44:22.621Z,101062.72
2024-03-03T13:46:51.820Z,101070.00
2024-03-03T13:49:21.214Z,100964.97
2024-03-03T13:51:50.276Z,101086.97
2024-03-03T13:54:19.359Z,100992.81
2024-03-03T13:56:48.870Z,101101.00
2024-03-03T13:59:19.590Z,101110.22
2024-03-03T14:01:49.412Z,101113.66
2024-03-03T14:04:18.735Z,101119.59
2024-03-03T14:06:48.113Z,101116.84
2024-03-03T14:09:17.621Z,101103.53
2024-03-03T14:11:48.857Z,101092.53
2024-03-03T14:14:19.542Z,101110.69
2024-03-03T14:16:49.003Z,101000.16
2024-03-03T14:19:32.516Z,101083.09
2024-03-03T14:22:06.112Z,101081.13
2024-03-03T14:24:35.545Z,101081.22
2024-03-03T14:27:05.230Z,101065.25
2024-03-03T14:29:36.007Z,101054.47
2024-03-03T14:32:05.817Z,101054.88
2024-03-03T14:34:35.142Z,101049.38
2024-03-03T14:37:04.692Z,101051.25
2024-03-03T14:39:33.591Z,101052.72
2024-03-03T14:42:02.694Z,101047.41
2024-03-03T14:44:31.898Z,101048.38
2024-03-03T14:47:03.796Z,101049.84
2024-03-03T14:49:34.774Z,100955.94
2024-03-03T14:52:05.831Z,101051.19
2024-03-03T14:54:34.870Z,101061.81
2024-03-03T14:57:04.068Z,101066.88
2024-03-03T14:59:33.181Z,101097.00
2024-03-03T15:02:04.516Z,101017.34
2024-03-03T15:04:33.753Z,101117.16
2024-03-03T15:07:03.541Z,101129.66
2024-03-03T15:09:33.109Z,101048.91
2024-03-03T15:12:02.455Z,101045.16
2024-03-03T15:14:32.498Z,101164.22
2024-03-03T15:17:03.275Z,101168.63
2024-03-03T15:19:32.613Z,101191.59
2024-03-03T15:22:01.716Z,101204.28
2024-03-03T15:24:31.674Z,101116.34
2024-03-03T15:27:00.677Z,101197.91
2024-03-03T15:29:30.978Z,101238.16
2024-03-03T15:32:00.157Z,101233.63
2024-03-03T15:34:31.531Z,101169.25
2024-03-03T15:37:00.948Z,101253.72
2024-03-03T15:39:30.339Z,101257.19
2024-03-03T15:41:59.664Z,101162.41
2024-03-03T15:44:28.961Z,101266.34
2024-03-03T15:46:58.177Z,101279.69
2024-03-03T15:49:27.481Z,101284.44
2024-03-03T15:51:58.829Z,101284.88
2024-03-03T15:54:28.311Z,101313.31
2024-03-03T15:56:57.469Z,101308.22
2024-03-03T15:59:27.080Z,101328.06
2024-03-03T16:01:58.647Z,101332.03
2024-03-03T16:04:28.101Z,101348.59
2024-03-03T16:06:59.674Z,101368.31
2024-03-03T16:09:29.597Z,101296.19
2024-03-03T16:11:59.090Z,101408.69
2024-03-03T16:14:29.111Z,101435.28
2024-03-03T16:16:58.344Z,101456.06
2024-03-03T16:19:32.617Z,101479.66
2024-03-03T16:22:04.270Z,101504.22
2024-03-03T16:24:34.218Z,101546.91
2024-03-03T16:27:06.037Z,101572.44
2024-03-03T16:29:35.368Z,101602.34
2024-03-03T16:32:04.747Z,101541.50
2024-03-03T16:34:34.257Z,101662.41
2024-03-03T16:37:06.550Z,101692.88
2024-03-03T16:39:36.183Z,101683.13
2024-03-03T16:42:07.040Z,101753.22
2024-03-03T16:44:36.206Z,101778.81
2024-03-03T16:47:06.506Z,101826.66
2024-03-03T16:49:38.605Z,101869.16
2024-03-03T16:52:09.675Z,101919.13
2024-03-03T16:54:39.715Z,101964.16
2024-03-03T16:57:09.549Z,102024.94
2024-03-03T16:59:38.956Z,102056.91
2024-03-03T17:02:08.830Z,102097.13
2024-03-03T17:04:38.912Z,102172.44
2024-03-03T17:07:10.378Z,102125.66
2024-03-03T17:09:40.160Z,102158.97
2024-03-03T17:12:09.940Z,102331.84
2024-03-03T17:14:39.270Z,102334.50
2024-03-03T17:17:08.723Z,102229.09
2024-03-03T17:19:38.514Z,102386.16
2024-03-03T17:22:09.788Z,102405.53
2024-03-03T17:24:38.833Z,102489.53
2024-03-03T17:27:08.881Z,102547.72
2024-03-03T17:29:39.019Z,102566.44
2024-03-03T17:32:10.453Z,102595.75
2024-03-03T17:34:40.728Z,102600.78
2024-03-03T17:37:12.471Z,102508.78
2024-03-03T17:39:42.245Z,102532.56
2024-03-03T17:42:11.354Z,102675.28
2024-03-03T17:44:40.865Z,102686.50
2024-03-03T17:47:10.886Z,102707.31
2024-03-03T17:49:40.649Z,102719.03
2024-03-03T17:52:11.378Z,102738.28
2024-03-03T17:54:41.004Z,102775.56
2024-03-03T17:57:10.269Z,102770.22
2024-03-03T17:59:39.722Z,102797.06
2024-03-03T18:02:09.089Z,102829.66
2024-03-03T18:04:38.134Z,102857.53
2024-03-03T18:07:08.033Z,102870.53
2024-03-03T18:09:40.418Z,102911.34
2024-03-03T18:12:10.438Z,102937.28
2024-03-03T18:14:39.367Z,102965.34
2024-03-03T18:17:09.335Z,102984.00
2024-03-03T18:19:53.522Z,103007.91
2024-03-03T18:22:23.469Z,103017.50
2024-03-03T18:24:55.657Z,102924.47
2024-03-03T18:27:26.132Z,103036.06
2024-03-03T18:29:55.636Z,103053.03
2024-03-03T18:32:25.226Z,103158.94
2024-03-03T18:34:54.973Z,103175.03
2024-03-03T18:37:25.068Z,103210.84
2024-03-03T18:39:57.166Z,103221.69
2024-03-03T18:42:26.558Z,103218.03
2024-03-03T18:44:57.836Z,103197.97
2024-03-03T18:47:26.841Z,103189.06
2024-03-03T18:49:57.910Z,103161.53
2024-03-03T18:52:27.552Z,103143.44
2024-03-03T18:55:00.438Z,103113.94
2024-03-03T18:57:31.534Z,103101.81
2024-03-03T19:00:01.386Z,103094.84
2024-03-03T19:02:30.502Z,103098.06
2024-03-03T19:05:00.515Z,103085.00
2024-03-03T19:07:31.909Z,102956.09
2024-03-03T19:10:02.957Z,103073.09
2024-03-03T19:12:32.453Z,103064.00
2024-03-03T19:15:02.158Z,103043.69
2024-03-03T19:17:31.714Z,103033.09
2024-03-03T19:20:01.236Z,103012.16
2024-03-03T19:22:30.782Z,102990.94
2024-03-03T19:25:02.017Z,102979.88
2024-03-03T19:27:31.745Z,102966.88
2024-03-03T19:30:01.399Z,102940.31
2024-03-03T19:32:30.897Z,102794.78
2024-03-03T19:35:01.044Z,102775.53
2024-03-03T19:37:30.797Z,102859.44
2024-03-03T19:40:01.524Z,102734.19
2024-03-03T19:42:36.034Z,102806.03
2024-03-03T19:45:07.105Z,102790.09
2024-03-03T19:47:36.929Z,102758.81
2024-03-03T19:50:10.319Z,102615.00
2024-03-03T19:52:39.941Z,102677.03
2024-03-03T19:55:11.444Z,102570.22
2024-03-03T19:57:41.482Z,102547.47
2024-03-03T20:00:16.450Z,102539.47
2024-03-03T20:02:46.476Z,102526.81
2024-03-03T20:05:16.432Z,102394.91
2024-03-03T20:07:46.165Z,102494.47
2024-03-03T20:10:17.578Z,102481.72
2024-03-03T20:12:53.082Z,102470.38
2024-03-03T20:15:25.285Z,102455.03
2024-03-03T20:17:55.130Z,102444.84
2024-03-03T20:20:25.762Z,102412.84
2024-03-03T20:22:55.337Z,102291.34
2024-03-03T20:25:26.768Z,102399.47
2024-03-03T20:27:56.587Z,102378.97
2024-03-03T20:30:26.686Z,102258.88
2024-03-03T20:32:56.145Z,102350.47
2024-03-03T20:35:26.283Z,102347.75
2024-03-03T20:37:57.310Z,102336.38
2024-03-03T20:40:28.154Z,102311.22
2024-03-03T20:42:57.491Z,102193.13
2024-03-03T20:45:27.602Z,102289.81
2024-03-03T20:47:56.855Z,102290.59
2024-03-03T20:50:27.234Z,102272.09
2024-03-03T20:52:56.792Z,102278.81
2024-03-03T20:55:27.510Z,102274.91
2024-03-03T20:57:58.222Z,102120.56
2024-03-03T21:00:28.401Z,102254.00
2024-03-03T21:02:58.787Z,102239.38
2024-03-03T21:05:30.364Z,102141.56
2024-03-03T21:08:00.036Z,102266.81
2024-03-03T21:10:31.434Z,102267.88
2024-03-03T21:13:01.015Z,102268.03
2024-03-03T21:15:30.817Z,102159.47
2024-03-03T21:18:00.250Z,102268.06
2024-03-03T21:20:29.447Z,102274.00
2024-03-03T21:22:58.642Z,102269.69
2024-03-03T21:25:27.882Z,102187.66
2024-03-03T21:27:58.915Z,102283.22
2024-03-03T21:30:29.934Z,102285.72
2024-03-03T21:33:01.748Z,102253.31
2024-03-03T21:35:30.827Z,102201.25
2024-03-03T21:38:00.940Z,102314.84
2024-03-03T21:40:35.782Z,102321.97
2024-03-03T21:43:11.145Z,102331.88
2024-03-03T21:45:42.301Z,102242.50
2024-03-03T21:48:13.103Z,102349.34
2024-03-03T21:50:45.012Z,102377.06
2024-03-03T21:53:14.430Z,102402.97
2024-03-03T21:55:45.753Z,102428.13
2024-03-03T21:58:16.676Z,102428.13
2024-03-03T22:00:46.311Z,102433.66
2024-03-03T22:03:15.702Z,102415.78
2024-03-03T22:05:45.216Z,102408.50
2024-03-03T22:08:13.630Z,102412.88
2024-03-03T22:10:42.717Z,102405.66
2024-03-03T22:13:12.136Z,102388.72
2024-03-03T22:15:43.284Z,102398.25
2024-03-03T22:18:12.549Z,102395.41
2024-03-03T22:20:44.514Z,102405.56
2024-03-03T22:23:14.897Z,102407.94
2024-03-03T22:25:44.545Z,102409.28
2024-03-03T22:28:13.818Z,102410.19
2024-03-03T22:30:46.599Z,102395.91
2024-03-03T22:33:16.207Z,102391.84
2024-03-03T22:35:45.707Z,102391.09
2024-03-03T22:38:15.122Z,102380.63
2024-03-03T22:40:44.557Z,102375.06
2024-03-03T22:43:14.061Z,102303.00
2024-03-03T22:45:44.619Z,102358.25
2024-03-03T22:48:14.010Z,102367.31
2024-03-03T22:50:43.082Z,102369.19
2024-03-03T22:53:12.525Z,102363.97
2024-03-03T22:55:42.696Z,102374.59
2024-03-03T22:58:12.610Z,102360.53
2024-03-03T23:00:43.327Z,102358.06
2024-03-03T23:03:12.860Z,102359.59
2024-03-03T23:05:42.086Z,102350.13
2024-03-03T23:08:12.051Z,102341.63
2024-03-03T23:10:41.416Z,102347.25
2024-03-03T23:13:11.243Z,102236.22
2024-03-03T23:15:40.384Z,102359.50
2024-03-03T23:18:11.153Z,102359.56
2024-03-03T23:20:40.477Z,102370.78
2024-03-03T23:23:09.639Z,102391.50
2024-03-03T23:25:39.204Z,102381.09
2024-03-03T23:28:08.633Z,102376.81
2024-03-03T23:30:38.276Z,102383.78
2024-03-03T23:33:07.895Z,102373.19
2024-03-03T23:35:38.342Z,102377.16
2024-03-03T23:38:10.305Z,102375.09
2024-03-03T23:40:39.868Z,102380.25
2024-03-03T23:43:09.179Z,102390.25
2024-03-03T23:45:38.384Z,102408.69
2024-03-03T23:48:09.066Z,102432.78
2024-03-03T23:50:39.984Z,102440.53
2024-03-03T23:53:09.868Z,102432.84
2024-03-03T23:55:39.139Z,102333.63
2024-03-03T23:58:08.816Z,102460.69
